createdAt,value
2023-04-21T00:01:44.590Z,102216.63
2023-04-21T00:04:15.376Z,102213.94
2023-04-21T00:06:44.569Z,102213.06
2023-04-21T00:09:14.056Z,102211.25
2023-04-21T00:11:42.109Z,102211.25
2023-04-21T00:14:10.170Z,102219.31
2023-04-21T00:16:38.414Z,102214.91
2023-04-21T00:19:07.652Z,102213.06
2023-04-21T00:21:36.740Z,102210.38
2023-04-21T00:24:05.239Z,102211.25
2023-04-21T00:26:34.704Z,102209.56
2023-04-21T00:29:02.865Z,102204.19
2023-04-21T00:31:31.167Z,102204.19
2023-04-21T00:33:59.280Z,102204.19
2023-04-21T00:36:28.312Z,102205.91
2023-04-21T00:38:56.541Z,102205.91
2023-04-21T00:41:24.902Z,102206.78
2023-04-21T00:44:04.693Z,102181.84
2023-04-21T00:46:33.340Z,102214.91
2023-04-21T00:49:04.640Z,102203.44
2023-04-21T00:51:34.464Z,102211.25
2023-04-21T00:54:05.455Z,102214.03
2023-04-21T00:56:35.007Z,102206.00
2023-04-21T00:59:04.901Z,102207.81
2023-04-21T01:01:36.646Z,102209.56
2023-04-21T01:04:06.293Z,102209.75
2023-04-21T01:06:35.310Z,102204.41
2023-04-21T01:09:04.837Z,102201.63
2023-04-21T01:11:33.096Z,102200.75
2023-04-21T01:14:01.225Z,102209.56
2023-04-21T01:16:32.798Z,102202.44
2023-04-21T01:19:01.955Z,102202.44
2023-04-21T01:21:32.166Z,102208.78
2023-04-21T01:24:01.593Z,102202.44
2023-04-21T01:26:29.712Z,102200.75
2023-04-21T01:28:58.548Z,102191.75
2023-04-21T01:31:27.455Z,102191.94
2023-04-21T01:33:55.712Z,102197.09
2023-04-21T01:36:24.023Z,102171.50
2023-04-21T01:38:52.067Z,102200.75
2023-04-21T01:41:21.550Z,102203.31
2023-04-21T01:43:49.683Z,102195.38
2023-04-21T01:46:20.793Z,102195.38
2023-04-21T01:48:48.962Z,102193.69
2023-04-21T01:51:17.033Z,102197.28
2023-04-21T01:53:45.082Z,102185.25
2023-04-21T01:56:15.499Z,102202.44
2023-04-21T01:58:44.982Z,102195.38
2023-04-21T02:01:13.101Z,102198.06
2023-04-21T02:03:41.952Z,102187.44
2023-04-21T02:06:10.138Z,102193.69
2023-04-21T02:08:38.204Z,102186.56
2023-04-21T02:11:06.334Z,102179.50
2023-04-21T02:13:34.378Z,102188.41
2023-04-21T02:16:13.354Z,102182.97
2023-04-21T02:18:42.522Z,102183.91
2023-04-21T02:21:10.641Z,102191.94
2023-04-21T02:23:38.694Z,102191.94
2023-04-21T02:26:07.005Z,102195.47
2023-04-21T02:28:35.079Z,102191.94
2023-04-21T02:31:04.901Z,102186.56
2023-04-21T02:33:32.990Z,102190.13
2023-04-21T02:36:01.070Z,102187.44
2023-04-21T02:38:29.148Z,102194.50
2023-04-21T02:40:57.778Z,102188.31
2023-04-21T02:43:26.245Z,102193.69
2023-04-21T02:45:54.342Z,102192.72
2023-04-21T02:48:24.047Z,102191.94
2023-04-21T02:50:53.351Z,102190.03
2023-04-21T02:53:21.574Z,102195.38
2023-04-21T02:55:50.005Z,102183.34
2023-04-21T02:58:18.374Z,102189.06
2023-04-21T03:00:46.531Z,102190.03
2023-04-21T03:03:16.685Z,102186.56
2023-04-21T03:05:46.351Z,102192.72
2023-04-21T03:08:14.481Z,102190.03
2023-04-21T03:10:42.762Z,102190.91
2023-04-21T03:13:10.845Z,102191.00
2023-04-21T03:15:38.915Z,102185.66
2023-04-21T03:18:07.134Z,102180.28
2023-04-21T03:20:35.329Z,102180.28
2023-04-21T03:23:05.007Z,102170.50
2023-04-21T03:25:33.115Z,102170.50
2023-04-21T03:28:01.211Z,102165.16
2023-04-21T03:30:29.435Z,102166.91
2023-04-21T03:32:58.899Z,102165.16
2023-04-21T03:35:27.188Z,102167.09
2023-04-21T03:37:55.394Z,102166.91
2023-04-21T03:40:24.931Z,102175.88
2023-04-21T03:42:53.492Z,102168.78
2023-04-21T03:45:22.771Z,102169.66
2023-04-21T03:47:54.218Z,102167.81
2023-04-21T03:50:22.563Z,102165.16
2023-04-21T03:52:50.672Z,102165.16
2023-04-21T03:55:18.792Z,102173.19
2023-04-21T03:57:48.253Z,102162.47
2023-04-21T04:00:16.518Z,102166.91
2023-04-21T04:02:44.921Z,102158.97
2023-04-21T04:05:13.245Z,102156.19
2023-04-21T04:07:41.466Z,102164.94
2023-04-21T04:10:09.659Z,102165.81
2023-04-21T04:12:37.748Z,102163.16
2023-04-21T04:15:08.698Z,102165.16
2023-04-21T04:17:36.759Z,102162.38
2023-04-21T04:20:06.546Z,102166.91
2023-04-21T04:22:34.894Z,102161.53
2023-04-21T04:25:03.020Z,102155.31
2023-04-21T04:27:31.091Z,102149.94
2023-04-21T04:29:59.348Z,102159.78
2023-04-21T04:32:28.927Z,102153.69
2023-04-21T04:34:57.500Z,102152.63
2023-04-21T04:37:25.599Z,102154.44
2023-04-21T04:39:54.984Z,102154.44
2023-04-21T04:42:23.051Z,102148.34
2023-04-21T04:44:54.732Z,102156.19
2023-04-21T04:47:22.874Z,102157.13
2023-04-21T04:49:52.521Z,102154.44
2023-04-21T04:52:20.774Z,102145.47
2023-04-21T04:54:48.877Z,102151.84
2023-04-21T04:57:16.970Z,102156.19
2023-04-21T04:59:45.162Z,102151.66
2023-04-21T05:02:13.531Z,102150.81
2023-04-21T05:04:41.969Z,102148.16
2023-04-21T05:07:11.646Z,102145.47
2023-04-21T05:09:39.804Z,102140.09
2023-04-21T05:12:08.067Z,102134.75
2023-04-21T05:14:36.271Z,102151.66
2023-04-21T05:17:04.400Z,102145.47
2023-04-21T05:19:32.539Z,102146.31
2023-04-21T05:22:02.046Z,102141.81
2023-04-21T05:24:31.564Z,102136.66
2023-04-21T05:26:59.673Z,102140.94
2023-04-21T05:29:27.792Z,102135.59
2023-04-21T05:31:57.307Z,102134.94
2023-04-21T05:34:25.515Z,102138.38
2023-04-21T05:36:53.637Z,102133.00
2023-04-21T05:39:21.733Z,102129.59
2023-04-21T05:41:51.231Z,102129.59
2023-04-21T05:44:19.567Z,102136.66
2023-04-21T05:46:47.954Z,102133.00
2023-04-21T05:49:16.656Z,102129.41
2023-04-21T05:51:44.848Z,102134.75
2023-04-21T05:54:12.974Z,102132.06
2023-04-21T05:56:41.097Z,102131.09
2023-04-21T05:59:11.681Z,102118.69
2023-04-21T06:01:39.828Z,102125.75
2023-04-21T06:04:08.118Z,102119.50
2023-04-21T06:06:36.807Z,102117.72
2023-04-21T06:09:05.604Z,102113.31
2023-04-21T06:11:33.686Z,102116.94
2023-04-21T06:14:02.038Z,102127.66
2023-04-21T06:16:34.221Z,102118.69
2023-04-21T06:19:02.525Z,102120.38
2023-04-21T06:21:30.989Z,102120.38
2023-04-21T06:23:59.548Z,102113.31
2023-04-21T06:26:27.714Z,102105.19
2023-04-21T06:28:56.037Z,102097.25
2023-04-21T06:31:24.264Z,102097.66
2023-04-21T06:33:53.842Z,102098.97
2023-04-21T06:36:23.089Z,102102.59
2023-04-21T06:38:51.214Z,102093.59
2023-04-21T06:41:19.604Z,102074.47
2023-04-21T06:43:47.722Z,102092.72
2023-04-21T06:46:15.873Z,102080.22
2023-04-21T06:48:43.979Z,102080.31
2023-04-21T06:51:13.714Z,102082.88
2023-04-21T06:53:41.847Z,102082.88
2023-04-21T06:56:09.964Z,102082.88
2023-04-21T06:58:38.126Z,102071.41
2023-04-21T07:01:06.504Z,102077.53
2023-04-21T07:03:34.901Z,102077.53
2023-04-21T07:06:03.126Z,102077.53
2023-04-21T07:08:32.770Z,102073.88
2023-04-21T07:11:00.893Z,102082.88
2023-04-21T07:13:29.073Z,102076.56
2023-04-21T07:15:57.624Z,102073.88
2023-04-21T07:18:25.864Z,102077.53
2023-04-21T07:20:54.417Z,102072.19
2023-04-21T07:23:22.564Z,102073.03
2023-04-21T07:25:52.134Z,102065.09
2023-04-21T07:28:20.355Z,102061.47
2023-04-21T07:30:48.650Z,102061.47
2023-04-21T07:33:16.807Z,102059.56
2023-04-21T07:35:45.000Z,102055.13
2023-04-21T07:38:13.290Z,102056.09
2023-04-21T07:40:41.419Z,102057.81
2023-04-21T07:43:11.180Z,102050.75
2023-04-21T07:45:39.361Z,102056.09
2023-04-21T07:48:07.785Z,102053.44
2023-04-21T07:50:37.123Z,102058.78
2023-04-21T07:53:05.518Z,102050.75
2023-04-21T07:55:34.386Z,102052.47
2023-04-21T07:58:02.548Z,102045.38
2023-04-21T08:00:32.279Z,102041.75
2023-04-21T08:03:00.542Z,102045.38
2023-04-21T08:05:32.322Z,102049.78
2023-04-21T08:08:03.226Z,102042.59
2023-04-21T08:10:31.494Z,102043.47
2023-04-21T08:12:59.595Z,102034.47
2023-04-21T08:15:27.804Z,102022.06
2023-04-21T08:17:57.404Z,102030.09
2023-04-21T08:20:25.653Z,102032.75
2023-04-21T08:22:53.879Z,102022.06
2023-04-21T08:25:22.632Z,102027.41
2023-04-21T08:27:50.944Z,102022.06
2023-04-21T08:30:19.229Z,102019.56
2023-04-21T08:32:47.419Z,102022.06
2023-04-21T08:35:17.015Z,102019.28
2023-04-21T08:37:45.670Z,102007.69
2023-04-21T08:40:14.108Z,102020.09
2023-04-21T08:42:42.310Z,102014.75
2023-04-21T08:45:11.560Z,102005.97
2023-04-21T08:47:42.599Z,102011.34
2023-04-21T08:50:14.997Z,101969.91
2023-04-21T08:52:44.913Z,102001.47
2023-04-21T08:55:14.219Z,102005.97
2023-04-21T08:57:42.389Z,102005.97
2023-04-21T09:00:11.554Z,101997.19
2023-04-21T09:03:00.748Z,101997.19
2023-04-21T09:05:31.440Z,102003.31
2023-04-21T09:08:11.237Z,102002.31
2023-04-21T09:10:46.543Z,102006.81
2023-04-21T09:13:15.089Z,102003.31
2023-04-21T09:15:44.336Z,101998.78
2023-04-21T09:18:14.873Z,101998.88
2023-04-21T09:20:44.127Z,101994.28
2023-04-21T09:23:14.472Z,101994.28
2023-04-21T09:25:44.190Z,101986.25
2023-04-21T09:28:13.543Z,101992.47
2023-04-21T09:30:43.161Z,101988.94
2023-04-21T09:33:28.043Z,101986.25
2023-04-21T09:36:03.319Z,101983.56
2023-04-21T09:38:34.214Z,101982.81
2023-04-21T09:41:02.434Z,101961.78
2023-04-21T09:43:30.614Z,101972.09
2023-04-21T09:45:59.920Z,101972.97
2023-04-21T09:48:33.123Z,101971.88
2023-04-21T09:51:25.520Z,101963.13
2023-04-21T09:53:54.661Z,101964.81
2023-04-21T09:56:25.769Z,101964.81
2023-04-21T09:58:55.321Z,101961.19
2023-04-21T10:01:26.284Z,101954.13
2023-04-21T10:03:55.083Z,101946.09
2023-04-21T10:06:24.328Z,101948.75
2023-04-21T10:08:56.927Z,101938.03
2023-04-21T10:11:26.169Z,101932.69
2023-04-21T10:13:54.638Z,101930.44
2023-04-21T10:16:23.423Z,101941.69
2023-04-21T10:18:51.640Z,101936.34
2023-04-21T10:21:22.189Z,101935.38
2023-04-21T10:23:53.097Z,101932.69
2023-04-21T10:26:24.618Z,101929.03
2023-04-21T10:28:59.433Z,101929.03
2023-04-21T10:31:34.764Z,101921.97
2023-04-21T10:34:20.325Z,101918.31
2023-04-21T10:37:07.896Z,101924.53
2023-04-21T10:39:37.442Z,101912.97
2023-04-21T10:42:25.629Z,101883.59
2023-04-21T10:44:55.696Z,101909.56
2023-04-21T10:47:27.991Z,101898.84
2023-04-21T10:49:58.246Z,101895.41
2023-04-21T10:52:34.578Z,101894.31
2023-04-21T10:55:12.838Z,101883.81
2023-04-21T10:57:46.364Z,101892.50
2023-04-21T11:00:17.939Z,101884.47
2023-04-21T11:02:54.358Z,101884.47
2023-04-21T11:05:29.172Z,101880.81
2023-04-21T11:08:05.049Z,101883.50
2023-04-21T11:10:43.734Z,101879.13
2023-04-21T11:13:13.339Z,101872.06
2023-04-21T11:15:42.263Z,101873.75
2023-04-21T11:18:10.488Z,101863.06
2023-04-21T11:20:46.233Z,101868.41
2023-04-21T11:23:19.085Z,101863.91
2023-04-21T11:25:49.501Z,101857.69
2023-04-21T11:28:23.739Z,101859.59
2023-04-21T11:30:51.957Z,101859.41
2023-04-21T11:33:20.404Z,101852.34
2023-04-21T11:35:49.797Z,101852.13
2023-04-21T11:38:19.028Z,101840.75
2023-04-21T11:40:48.706Z,101847.63
2023-04-21T11:43:17.259Z,101841.41
2023-04-21T11:45:50.647Z,101839.69
2023-04-21T11:48:19.655Z,101829.19
2023-04-21T11:50:51.775Z,101834.34
2023-04-21T11:53:21.045Z,101841.41
2023-04-21T11:55:49.462Z,101829.00
2023-04-21T11:58:18.071Z,101823.63
2023-04-21T12:00:48.108Z,101814.84
2023-04-21T12:03:17.147Z,101820.94
2023-04-21T12:05:45.455Z,101802.19
2023-04-21T12:08:17.149Z,101812.91
2023-04-21T12:10:50.119Z,101809.25
2023-04-21T12:13:24.513Z,101805.81
2023-04-21T12:15:54.163Z,101799.53
2023-04-21T12:18:22.336Z,101810.13
2023-04-21T12:20:51.817Z,101805.59
2023-04-21T12:23:20.491Z,101795.88
2023-04-21T12:25:48.906Z,101805.59
2023-04-21T12:28:18.318Z,101784.41
2023-04-21T12:30:46.530Z,101787.84
2023-04-21T12:33:16.199Z,101793.19
2023-04-21T12:35:44.644Z,101792.31
2023-04-21T12:38:12.814Z,101797.69
2023-04-21T12:40:40.999Z,101786.13
2023-04-21T12:43:09.126Z,101778.09
2023-04-21T12:45:37.609Z,101773.69
2023-04-21T12:48:06.060Z,101775.41
2023-04-21T12:50:35.649Z,101762.97
2023-04-21T12:53:03.848Z,101764.72
2023-04-21T12:55:32.016Z,101766.41
2023-04-21T12:58:00.164Z,101769.09
2023-04-21T13:00:28.597Z,101761.06
2023-04-21T13:02:56.850Z,101672.06
2023-04-21T13:05:25.193Z,101758.38
2023-04-21T13:07:55.642Z,101750.34
2023-04-21T13:10:25.287Z,101755.69
2023-04-21T13:12:53.459Z,101742.19
2023-04-21T13:15:21.675Z,101745.84
2023-04-21T13:17:50.665Z,101733.28
2023-04-21T13:20:20.513Z,101736.84
2023-04-21T13:22:48.700Z,101731.47
2023-04-21T13:25:18.817Z,101733.28
2023-04-21T13:27:47.014Z,101730.59
2023-04-21T13:30:16.733Z,101737.69
2023-04-21T13:32:45.095Z,101732.34
2023-04-21T13:35:13.362Z,101729.78
2023-04-21T13:37:42.574Z,101734.25
2023-04-21T13:40:12.210Z,101721.41
2023-04-21T13:42:41.843Z,101718.41
2023-04-21T13:45:11.212Z,101718.19
2023-04-21T13:47:39.768Z,101711.13
2023-04-21T13:50:09.196Z,101703.81
2023-04-21T13:52:37.435Z,101701.25
2023-04-21T13:55:06.314Z,101700.41
2023-04-21T13:57:34.536Z,101687.75
2023-04-21T14:00:06.210Z,101684.34
2023-04-21T14:02:34.719Z,101687.75
2023-04-21T14:05:03.927Z,101670.19
2023-04-21T14:07:32.343Z,101665.50
2023-04-21T14:10:00.543Z,101668.06
2023-04-21T14:12:28.944Z,101664.63
2023-04-21T14:14:57.183Z,101652.94
2023-04-21T14:17:26.966Z,101652.22
2023-04-21T14:19:55.416Z,101654.78
2023-04-21T14:22:23.718Z,101652.22
2023-04-21T14:24:51.986Z,101650.25
2023-04-21T14:27:20.134Z,101636.13
2023-04-21T14:29:48.359Z,101641.28
2023-04-21T14:32:16.962Z,101641.28
2023-04-21T14:34:46.545Z,101630.78
2023-04-21T14:37:14.759Z,101627.13
2023-04-21T14:39:42.930Z,101623.47
2023-04-21T14:42:11.213Z,101624.44
2023-04-21T14:44:39.395Z,101621.78
2023-04-21T14:47:10.430Z,101615.44
2023-04-21T14:49:39.613Z,101612.75
2023-04-21T14:52:09.441Z,101604.72
2023-04-21T14:54:37.726Z,101606.34
2023-04-21T14:57:19.009Z,101603.56
2023-04-21T14:59:47.663Z,101593.78
2023-04-21T15:02:16.647Z,101591.09
2023-04-21T15:04:45.135Z,101591.09
2023-04-21T15:07:17.158Z,101596.47
2023-04-21T15:09:48.683Z,101589.41
2023-04-21T15:12:16.952Z,101580.63
2023-04-21T15:14:45.521Z,101585.97
2023-04-21T15:17:14.061Z,101580.63
2023-04-21T15:19:42.235Z,101575.25
2023-04-21T15:22:12.258Z,101574.44
2023-04-21T15:24:41.947Z,101573.56
2023-04-21T15:27:10.342Z,101562.84
2023-04-21T15:29:38.574Z,101560.41
2023-04-21T15:32:06.884Z,101564.44
2023-04-21T15:34:35.057Z,101555.56
2023-04-21T15:37:03.318Z,101556.41
2023-04-21T15:39:31.497Z,101539.50
2023-04-21T15:42:01.740Z,101534.13
2023-04-21T15:44:29.855Z,101539.50
2023-04-21T15:46:58.193Z,101528.78
2023-04-21T15:49:26.465Z,101534.13
2023-04-21T15:51:54.800Z,101526.09
2023-04-21T15:54:23.044Z,101523.44
2023-04-21T15:56:51.504Z,101528.78
2023-04-21T15:59:22.391Z,101518.91
2023-04-21T16:01:51.942Z,101511.22
2023-04-21T16:04:20.277Z,101525.13
2023-04-21T16:06:48.669Z,101523.44
2023-04-21T16:09:17.671Z,101514.41
2023-04-21T16:11:46.312Z,101503.69
2023-04-21T16:14:16.582Z,101504.69
2023-04-21T16:16:46.500Z,101506.38
2023-04-21T16:19:14.696Z,101503.69
2023-04-21T16:21:43.528Z,101496.75
2023-04-21T16:24:12.285Z,101497.47
2023-04-21T16:26:41.074Z,101498.34
2023-04-21T16:29:09.188Z,101498.34
2023-04-21T16:31:37.481Z,101489.56
2023-04-21T16:34:07.013Z,101490.31
2023-04-21T16:36:35.195Z,101487.63
2023-04-21T16:39:03.487Z,101489.56
2023-04-21T16:41:31.715Z,101480.56
2023-04-21T16:43:59.831Z,101483.25
2023-04-21T16:46:28.142Z,101485.94
2023-04-21T16:48:56.394Z,101480.56
2023-04-21T16:51:27.011Z,101472.53
2023-04-21T16:53:56.792Z,101480.56
2023-04-21T16:56:25.013Z,101464.72
2023-04-21T16:58:54.049Z,101464.50
2023-04-21T17:01:22.217Z,101459.13
2023-04-21T17:03:50.509Z,101454.72
2023-04-21T17:06:21.365Z,101459.13
2023-04-21T17:08:52.344Z,101447.56
2023-04-21T17:11:20.451Z,101452.81
2023-04-21T17:13:48.541Z,101444.78
2023-04-21T17:16:17.065Z,101443.91
2023-04-21T17:18:45.362Z,101444.78
2023-04-21T17:21:13.465Z,101427.72
2023-04-21T17:23:41.567Z,101427.84
2023-04-21T17:26:13.195Z,101436.72
2023-04-21T17:28:41.645Z,101427.72
2023-04-21T17:31:15.870Z,101423.34
2023-04-21T17:33:44.818Z,101434.91
2023-04-21T17:36:13.366Z,101417.97
2023-04-21T17:38:42.926Z,101417.97
2023-04-21T17:41:12.593Z,101418.97
2023-04-21T17:43:41.095Z,101415.41
2023-04-21T17:46:09.300Z,101414.56
2023-04-21T17:48:37.651Z,101414.56
2023-04-21T17:51:05.935Z,101403.84
2023-04-21T17:53:34.026Z,101408.25
2023-04-21T17:56:02.270Z,101408.25
2023-04-21T17:58:31.862Z,101371.88
2023-04-21T18:01:00.531Z,101398.50
2023-04-21T18:03:28.904Z,101395.69
2023-04-21T18:05:57.303Z,101404.72
2023-04-21T18:08:26.496Z,101392.19
2023-04-21T18:10:55.802Z,101389.50
2023-04-21T18:13:23.885Z,101398.50
2023-04-21T18:15:53.489Z,101393.13
2023-04-21T18:18:21.595Z,101389.50
2023-04-21T18:20:49.703Z,101391.19
2023-04-21T18:23:17.831Z,101380.50
2023-04-21T18:25:45.977Z,101378.78
2023-04-21T18:28:14.438Z,101381.47
2023-04-21T18:30:42.694Z,101380.50
2023-04-21T18:33:12.589Z,101380.50
2023-04-21T18:35:41.857Z,101378.78
2023-04-21T18:38:11.680Z,101384.16
2023-04-21T18:40:40.932Z,101380.50
2023-04-21T18:43:10.686Z,101381.47
2023-04-21T18:45:39.184Z,101368.06
2023-04-21T18:48:07.437Z,101366.34
2023-04-21T18:50:40.389Z,101364.66
2023-04-21T18:53:09.464Z,101361.97
2023-04-21T18:55:37.896Z,101361.00
2023-04-21T18:58:06.190Z,101355.63
2023-04-21T19:00:37.574Z,101356.50
2023-04-21T19:03:06.989Z,101357.38
2023-04-21T19:05:37.120Z,101340.16
2023-04-21T19:08:05.704Z,101257.91
2023-04-21T19:10:35.788Z,101349.31
2023-04-21T19:13:04.354Z,101344.91
2023-04-21T19:15:32.525Z,101337.88
2023-04-21T19:18:00.653Z,101332.50
2023-04-21T19:20:29.258Z,101344.91
2023-04-21T19:22:58.702Z,101339.56
2023-04-21T19:25:26.757Z,101333.38
2023-04-21T19:27:54.945Z,101328.84
2023-04-21T19:30:23.050Z,101332.50
2023-04-21T19:32:51.360Z,101334.22
2023-04-21T19:35:19.432Z,101326.19
2023-04-21T19:37:47.521Z,101321.91
2023-04-21T19:40:17.288Z,101321.06
2023-04-21T19:42:46.065Z,101338.72
2023-04-21T19:45:14.254Z,101324.47
2023-04-21T19:47:42.338Z,101225.41
2023-04-21T19:50:13.004Z,101321.81
2023-04-21T19:52:41.102Z,101314.75
2023-04-21T19:55:10.006Z,101312.19
2023-04-21T19:57:39.628Z,101313.03
2023-04-21T20:00:11.667Z,101305.97
2023-04-21T20:02:39.906Z,101307.66
2023-04-21T20:05:09.540Z,101127.16
2023-04-21T20:07:37.817Z,101307.91
2023-04-21T20:10:06.999Z,101302.31
2023-04-21T20:12:35.416Z,101300.00
2023-04-21T20:15:06.137Z,101296.94
2023-04-21T20:17:34.290Z,101294.28
2023-04-21T20:20:03.410Z,101199.75
2023-04-21T20:22:31.644Z,101291.59
2023-04-21T20:24:59.700Z,101290.88
2023-04-21T20:27:28.444Z,101284.53
2023-04-21T20:29:56.617Z,101284.53
2023-04-21T20:32:26.249Z,101277.72
2023-04-21T20:34:54.340Z,101284.53
2023-04-21T20:37:23.442Z,101286.25
2023-04-21T20:39:51.676Z,101274.31
2023-04-21T20:42:21.934Z,101286.25
2023-04-21T20:44:50.213Z,101286.25
2023-04-21T20:47:18.353Z,101280.88
2023-04-21T20:49:48.181Z,101276.63
2023-04-21T20:52:16.453Z,101287.22
2023-04-21T20:54:44.618Z,101279.19
2023-04-21T20:57:13.214Z,101284.53
2023-04-21T20:59:41.442Z,101283.56
2023-04-21T21:02:09.935Z,101285.41
2023-04-21T21:04:38.276Z,101277.72
2023-04-21T21:07:07.819Z,101278.22
2023-04-21T21:09:36.471Z,101284.53
2023-04-21T21:12:04.915Z,101280.88
2023-04-21T21:14:33.003Z,101286.25
2023-04-21T21:17:01.505Z,101275.75
2023-04-21T21:19:29.772Z,101280.88
2023-04-21T21:21:57.938Z,101277.50
2023-04-21T21:24:28.975Z,101266.78
2023-04-21T21:26:57.428Z,101185.38
2023-04-21T21:29:25.608Z,101277.25
2023-04-21T21:31:53.735Z,101269.34
2023-04-21T21:34:21.931Z,101268.47
2023-04-21T21:36:49.998Z,101264.81
2023-04-21T21:39:18.097Z,101270.16
2023-04-21T21:41:47.493Z,101270.16
2023-04-21T21:44:15.602Z,101266.78
2023-04-21T21:46:44.284Z,101265.81
2023-04-21T21:49:12.447Z,101261.31
2023-04-21T21:51:40.855Z,101259.47
2023-04-21T21:54:09.047Z,101258.00
2023-04-21T21:56:37.668Z,101263.13
2023-04-21T21:59:07.181Z,101257.75
2023-04-21T22:01:35.292Z,101251.53
2023-04-21T22:04:03.676Z,101263.13
2023-04-21T22:06:34.247Z,101256.06
2023-04-21T22:09:02.358Z,101257.75
2023-04-21T22:11:30.526Z,101251.44
2023-04-21T22:14:07.763Z,101250.72
2023-04-21T22:16:46.219Z,101247.91
2023-04-21T22:19:14.749Z,101244.38
2023-04-21T22:21:42.808Z,101241.69
2023-04-21T22:24:10.869Z,101235.47
2023-04-21T22:26:38.905Z,101235.47
2023-04-21T22:29:07.144Z,101237.22
2023-04-21T22:31:35.699Z,101148.31
2023-04-21T22:34:05.445Z,101229.28
2023-04-21T22:36:33.566Z,101225.63
2023-04-21T22:39:01.619Z,101227.56
2023-04-21T22:41:29.719Z,101220.28
2023-04-21T22:43:57.817Z,101217.72
2023-04-21T22:46:26.016Z,101212.47
2023-04-21T22:48:54.524Z,101217.72
2023-04-21T22:51:24.485Z,101219.41
2023-04-21T22:53:52.596Z,101213.22
2023-04-21T22:56:21.223Z,101213.22
2023-04-21T22:58:50.134Z,101213.22
2023-04-21T23:01:18.268Z,101203.34
2023-04-21T23:03:46.579Z,101116.81
2023-04-21T23:06:14.760Z,101193.75
2023-04-21T23:08:44.205Z,101201.66
2023-04-21T23:11:12.345Z,101204.22
2023-04-21T23:13:40.725Z,101204.22
2023-04-21T23:16:08.835Z,101202.50
2023-04-21T23:18:37.074Z,101198.84
2023-04-21T23:21:05.462Z,101202.50
2023-04-21T23:23:33.516Z,101108.53
2023-04-21T23:26:03.174Z,101194.47
2023-04-21T23:28:31.907Z,101190.94
2023-04-21T23:31:00.022Z,101012.91
2023-04-21T23:33:28.189Z,101184.72
2023-04-21T23:35:56.316Z,101184.72
2023-04-21T23:38:24.402Z,101187.28
2023-04-21T23:40:52.455Z,101178.28
2023-04-21T23:43:21.924Z,101180.97
2023-04-21T23:45:50.260Z,101175.59
2023-04-21T23:48:18.470Z,101177.44
2023-04-21T23:50:46.684Z,101171.09
2023-04-21T23:53:14.843Z,101172.06
2023-04-21T23:55:43.248Z,101177.44
2023-04-21T23:58:11.333Z,101172.06
